createdAt,value
2022-08-17T00:02:26.424Z,2.03
2022-08-17T00:04:55.058Z,2.23
2022-08-17T00:07:22.615Z,2.10
2022-08-17T00:09:49.538Z,2.10
2022-08-17T00:12:41.415Z,2.37
2022-08-17T00:15:05.857Z,2.30
2022-08-17T00:17:36.116Z,2.20
2022-08-17T00:20:03.377Z,2.40
2022-08-17T00:22:34.232Z,2.17
2022-08-17T00:25:03.321Z,2.47
2022-08-17T00:27:30.206Z,2.60
2022-08-17T00:29:57.053Z,2.17
2022-08-17T00:33:13.722Z,2.20
2022-08-17T00:35:13.102Z,2.40
2022-08-17T00:37:40.421Z,2.30
2022-08-17T00:40:09.985Z,2.60
2022-08-17T00:42:37.313Z,2.63
2022-08-17T00:45:06.277Z,2.90
2022-08-17T00:47:33.388Z,2.57
2022-08-17T00:50:00.540Z,2.67
2022-08-17T00:52:34.154Z,2.60
2022-08-17T00:55:01.403Z,2.70
2022-08-17T00:57:41.690Z,2.37
2022-08-17T01:00:21.498Z,2.67
2022-08-17T01:02:48.930Z,2.80
2022-08-17T01:05:20.618Z,2.70
2022-08-17T01:07:51.101Z,2.67
2022-08-17T01:10:59.965Z,2.73
2022-08-17T01:13:10.901Z,2.77
2022-08-17T01:15:39.489Z,2.63
2022-08-17T01:18:08.076Z,3.03
2022-08-17T01:20:47.863Z,3.57
2022-08-17T01:23:20.556Z,3.40
2022-08-17T01:25:54.738Z,2.90
2022-08-17T01:28:33.592Z,3.17
2022-08-17T01:31:09.505Z,3.40
2022-08-17T01:33:36.876Z,3.33
2022-08-17T01:36:07.120Z,3.13
2022-08-17T01:38:35.958Z,3.57
2022-08-17T01:41:07.662Z,3.67
2022-08-17T01:44:02.479Z,3.50
2022-08-17T01:46:34.185Z,3.73
2022-08-17T01:49:01.697Z,3.40
2022-08-17T01:51:32.942Z,4.00
2022-08-17T01:54:08.225Z,3.50
2022-08-17T01:56:37.725Z,3.90
2022-08-17T01:59:05.019Z,3.40
2022-08-17T02:01:34.002Z,3.00
2022-08-17T02:04:01.903Z,4.03
2022-08-17T02:06:52.360Z,4.43
2022-08-17T02:09:25.805Z,4.20
2022-08-17T02:11:54.977Z,4.30
2022-08-17T02:14:24.569Z,3.60
2022-08-17T02:16:52.097Z,4.00
2022-08-17T02:19:19.299Z,3.67
2022-08-17T02:21:48.039Z,4.33
2022-08-17T02:24:58.499Z,4.00
2022-08-17T02:27:07.085Z,4.37
2022-08-17T02:29:34.036Z,4.20
2022-08-17T02:32:02.033Z,4.43
2022-08-17T02:34:29.369Z,3.70
2022-08-17T02:36:56.390Z,4.60
2022-08-17T02:39:23.295Z,3.80
2022-08-17T02:41:50.443Z,4.23
2022-08-17T02:44:39.390Z,4.70
2022-08-17T02:47:04.432Z,3.67
2022-08-17T02:49:31.656Z,4.07
2022-08-17T02:51:58.956Z,4.10
2022-08-17T02:54:40.499Z,3.97
2022-08-17T02:57:10.089Z,4.60
2022-08-17T02:59:42.382Z,4.30
2022-08-17T03:02:13.721Z,3.93
2022-08-17T03:04:40.723Z,4.10
2022-08-17T03:07:07.567Z,3.83
2022-08-17T03:09:34.482Z,3.63
2022-08-17T03:12:09.889Z,3.87
2022-08-17T03:14:41.489Z,4.27
2022-08-17T03:17:10.283Z,4.13
2022-08-17T03:19:37.701Z,4.57
2022-08-17T03:22:37.081Z,4.43
2022-08-17T03:24:57.049Z,4.07
2022-08-17T03:27:23.992Z,4.20
2022-08-17T03:29:50.829Z,4.70
2022-08-17T03:32:17.990Z,4.87
2022-08-17T03:34:44.869Z,5.13
2022-08-17T03:37:12.679Z,4.93
2022-08-17T03:39:39.822Z,5.13
2022-08-17T03:42:31.805Z,4.70
2022-08-17T03:45:00.162Z,4.63
2022-08-17T03:47:45.987Z,4.83
2022-08-17T03:50:32.629Z,5.00
2022-08-17T03:53:19.026Z,4.30
2022-08-17T03:56:04.238Z,5.27
2022-08-17T03:58:31.151Z,5.00
2022-08-17T04:00:58.023Z,5.07
2022-08-17T04:03:24.914Z,5.13
2022-08-17T04:05:51.761Z,5.20
2022-08-17T04:08:18.671Z,5.60
2022-08-17T04:10:45.589Z,5.87
2022-08-17T04:13:13.077Z,5.63
2022-08-17T04:15:40.214Z,6.07
2022-08-17T04:18:07.704Z,5.63
2022-08-17T04:20:38.066Z,5.47
2022-08-17T04:23:10.208Z,6.00
2022-08-17T04:25:40.258Z,6.27
2022-08-17T04:28:14.621Z,5.83
2022-08-17T04:30:45.403Z,5.77
2022-08-17T04:33:24.210Z,6.83
2022-08-17T04:35:57.263Z,6.17
2022-08-17T04:38:26.953Z,6.97
2022-08-17T04:41:12.448Z,7.20
2022-08-17T04:43:40.933Z,6.40
2022-08-17T04:46:10.580Z,7.07
2022-08-17T04:48:40.432Z,6.63
2022-08-17T04:51:32.493Z,6.50
2022-08-17T04:54:02.343Z,6.43
2022-08-17T04:56:30.220Z,6.50
2022-08-17T04:59:00.609Z,6.80
2022-08-17T05:01:30.055Z,6.17
2022-08-17T05:04:02.389Z,6.90
2022-08-17T05:06:49.753Z,6.27
2022-08-17T05:09:17.756Z,6.47
2022-08-17T05:11:45.461Z,6.27
2022-08-17T05:14:12.985Z,5.80
2022-08-17T05:16:39.918Z,5.63
2022-08-17T05:19:06.896Z,6.27
2022-08-17T05:21:33.830Z,5.70
2022-08-17T05:24:00.897Z,5.70
2022-08-17T05:26:32.897Z,6.40
2022-08-17T05:29:03.361Z,6.30
2022-08-17T05:31:30.969Z,4.93
2022-08-17T05:33:58.216Z,5.27
2022-08-17T05:36:42.445Z,5.53
2022-08-17T05:39:16.695Z,4.73
2022-08-17T05:41:48.234Z,5.00
2022-08-17T05:44:15.683Z,5.40
2022-08-17T05:46:46.062Z,5.40
2022-08-17T05:49:13.651Z,4.53
2022-08-17T05:51:49.152Z,4.73
2022-08-17T05:54:42.103Z,4.30
2022-08-17T05:57:39.914Z,4.73
2022-08-17T06:00:30.188Z,4.67
2022-08-17T06:03:05.366Z,4.80
2022-08-17T06:05:45.441Z,4.60
2022-08-17T06:08:22.171Z,4.43
2022-08-17T06:10:58.476Z,4.30
2022-08-17T06:14:00.858Z,4.23
2022-08-17T06:16:36.902Z,4.40
2022-08-17T06:19:20.600Z,4.53
2022-08-17T06:21:51.782Z,4.57
2022-08-17T06:24:24.700Z,4.70
2022-08-17T06:26:52.605Z,3.97
2022-08-17T06:29:23.194Z,4.90
2022-08-17T06:31:51.281Z,5.07
2022-08-17T06:34:19.597Z,4.83
2022-08-17T06:37:24.814Z,5.00
2022-08-17T06:40:00.782Z,5.03
2022-08-17T06:43:05.778Z,5.90
2022-08-17T06:45:49.639Z,4.70
2022-08-17T06:48:26.357Z,5.13
2022-08-17T06:51:00.631Z,5.10
2022-08-17T06:53:32.909Z,5.17
2022-08-17T06:56:10.148Z,5.07
2022-08-17T06:58:40.279Z,5.47
2022-08-17T07:01:23.535Z,5.13
2022-08-17T07:04:13.573Z,5.30
2022-08-17T07:06:46.439Z,4.87
2022-08-17T07:09:23.438Z,6.27
2022-08-17T07:11:54.520Z,5.27
2022-08-17T07:14:45.811Z,5.13
2022-08-17T07:17:15.964Z,5.60
2022-08-17T07:19:46.742Z,5.27
2022-08-17T07:22:30.829Z,5.97
2022-08-17T07:25:20.766Z,5.17
2022-08-17T07:27:51.513Z,5.67
2022-08-17T07:30:24.872Z,5.23
2022-08-17T07:32:58.058Z,5.17
2022-08-17T07:35:37.602Z,5.07
2022-08-17T07:38:30.573Z,6.23
2022-08-17T07:40:58.209Z,4.87
2022-08-17T07:43:40.110Z,4.67
2022-08-17T07:46:39.708Z,4.57
2022-08-17T07:49:09.329Z,4.57
2022-08-17T07:51:45.917Z,4.80
2022-08-17T07:54:14.854Z,4.67
2022-08-17T07:56:46.525Z,3.73
2022-08-17T07:59:15.154Z,3.67
2022-08-17T08:01:44.962Z,3.67
2022-08-17T08:07:26.718Z,3.40
2022-08-17T08:09:59.778Z,3.63
2022-08-17T08:12:37.286Z,3.73
2022-08-17T08:15:15.220Z,3.90
2022-08-17T08:17:54.318Z,3.77
2022-08-17T08:20:51.661Z,3.53
2022-08-17T08:23:25.819Z,5.37
2022-08-17T08:25:56.890Z,3.30
2022-08-17T08:28:46.111Z,3.17
2022-08-17T08:31:24.646Z,3.27
2022-08-17T08:34:06.750Z,2.90
2022-08-17T08:37:17.783Z,3.27
2022-08-17T08:39:52.314Z,2.73
2022-08-17T08:42:33.731Z,3.40
2022-08-17T08:45:24.389Z,3.00
2022-08-17T08:48:22.905Z,3.63
2022-08-17T08:51:14.991Z,3.03
2022-08-17T08:54:03.506Z,2.77
2022-08-17T08:57:19.777Z,2.57
2022-08-17T09:00:05.629Z,2.20
2022-08-17T09:02:47.430Z,2.47
2022-08-17T09:05:52.937Z,3.13
2022-08-17T09:08:32.489Z,2.60
2022-08-17T09:11:22.741Z,2.40
2022-08-17T09:14:07.833Z,2.30
2022-08-17T09:16:57.707Z,1.73
2022-08-17T09:20:27.867Z,1.90
2022-08-17T09:23:13.414Z,2.27
2022-08-17T09:25:50.662Z,1.70
2022-08-17T13:29:45.229Z,1.33
2022-08-17T13:32:41.273Z,1.33
2022-08-17T13:35:35.381Z,1.13
2022-08-17T13:38:17.188Z,1.30
2022-08-17T13:40:50.505Z,1.43
2022-08-17T13:43:41.260Z,1.43
2022-08-17T13:46:12.927Z,1.40
2022-08-17T13:48:40.789Z,1.30
2022-08-17T13:51:18.300Z,1.77
2022-08-17T13:53:45.871Z,1.67
2022-08-17T13:56:37.621Z,1.30
2022-08-17T13:59:09.838Z,1.50
2022-08-17T14:01:53.151Z,1.30
2022-08-17T14:04:32.350Z,1.37
2022-08-17T14:07:24.258Z,1.40
2022-08-17T14:09:58.622Z,1.87
2022-08-17T14:12:28.567Z,1.87
2022-08-17T14:14:57.238Z,1.80
2022-08-17T14:17:26.664Z,1.83
2022-08-17T14:19:54.541Z,1.90
2022-08-17T14:22:28.890Z,1.60
2022-08-17T14:24:58.462Z,1.10
2022-08-17T14:27:28.588Z,0.90
2022-08-17T14:29:58.586Z,1.17
2022-08-17T14:32:37.012Z,0.90
2022-08-17T14:35:06.032Z,0.90
2022-08-17T14:37:35.317Z,1.07
2022-08-17T14:40:07.282Z,1.00
2022-08-17T14:42:36.687Z,1.27
2022-08-17T14:45:06.404Z,1.73
2022-08-17T14:47:53.904Z,1.73
2022-08-17T14:50:23.415Z,3.67
2022-08-17T14:52:51.333Z,1.80
2022-08-17T14:55:19.569Z,2.17
2022-08-17T14:57:47.206Z,3.23
2022-08-17T15:00:17.157Z,2.43
2022-08-17T15:02:55.694Z,2.27
2022-08-17T15:05:26.059Z,1.83
2022-08-17T15:07:54.051Z,1.77
2022-08-17T15:10:22.054Z,1.70
2022-08-17T15:12:49.590Z,1.57
2022-08-17T15:15:18.703Z,1.93
2022-08-17T15:17:47.899Z,2.37
2022-08-17T17:09:01.445Z,2.73
2022-08-17T17:11:51.100Z,3.03
2022-08-17T17:14:28.439Z,3.13
2022-08-17T17:17:04.156Z,2.77
2022-08-17T17:19:52.419Z,2.43
2022-08-17T17:22:30.207Z,3.33
2022-08-17T17:25:48.808Z,2.70
2022-08-17T17:29:00.961Z,2.80
2022-08-17T17:34:16.888Z,2.80
2022-08-17T17:36:49.012Z,2.70
2022-08-17T17:39:20.630Z,2.70
2022-08-17T17:41:49.814Z,2.10
2022-08-17T17:44:21.123Z,2.10
2022-08-17T17:46:55.979Z,2.87
2022-08-17T17:49:23.915Z,2.40
2022-08-17T17:52:10.854Z,2.50
2022-08-17T17:55:18.083Z,2.40
2022-08-17T17:57:59.485Z,2.37
2022-08-17T18:00:38.520Z,2.47
2022-08-17T18:03:17.213Z,2.17
2022-08-17T18:06:10.328Z,2.33
2022-08-17T18:08:59.164Z,2.10
2022-08-17T18:11:52.613Z,2.40
2022-08-17T18:14:46.274Z,2.40
2022-08-17T18:17:14.725Z,2.30
2022-08-17T18:19:41.696Z,2.30
2022-08-17T18:22:18.513Z,2.13
2022-08-17T18:24:48.351Z,2.47
2022-08-17T18:27:29.640Z,2.47
2022-08-17T18:29:58.353Z,2.30
2022-08-17T18:32:28.689Z,2.37
2022-08-17T18:35:02.492Z,2.30
2022-08-17T18:37:36.820Z,2.37
2022-08-17T18:40:19.628Z,2.60
2022-08-17T18:43:06.521Z,2.30
2022-08-17T18:45:47.648Z,2.73
2022-08-17T18:48:30.168Z,3.20
2022-08-17T18:51:26.277Z,2.37
2022-08-17T18:54:28.664Z,2.83
2022-08-17T18:56:56.633Z,2.70
2022-08-17T18:59:44.111Z,3.07
2022-08-17T19:05:13.538Z,2.97
2022-08-17T19:07:46.192Z,2.53
2022-08-17T19:10:31.511Z,2.40
2022-08-17T19:13:01.224Z,1.97
2022-08-17T19:15:33.940Z,2.50
2022-08-17T19:18:22.871Z,2.40
2022-08-17T19:20:59.023Z,2.47
2022-08-17T19:23:28.143Z,2.60
2022-08-17T19:25:58.671Z,2.80
2022-08-17T19:28:25.515Z,2.43
2022-08-17T19:31:03.710Z,3.10
2022-08-17T19:33:31.771Z,2.63
2022-08-17T19:36:06.832Z,2.80
2022-08-17T19:38:51.875Z,2.73
2022-08-17T19:41:30.170Z,2.93
2022-08-17T19:44:09.153Z,3.57
2022-08-17T19:46:50.425Z,3.23
2022-08-17T19:49:53.087Z,3.50
2022-08-17T19:52:31.092Z,3.83
2022-08-17T19:55:05.159Z,3.97
2022-08-17T19:57:46.893Z,5.27
2022-08-17T20:00:18.603Z,5.03
2022-08-17T20:02:55.756Z,5.47
2022-08-17T20:05:29.889Z,5.17
2022-08-17T20:08:09.551Z,4.70
2022-08-17T20:10:54.378Z,5.80
2022-08-17T20:13:44.435Z,5.50
2022-08-17T20:16:17.140Z,5.20
2022-08-17T20:19:01.898Z,5.70
2022-08-17T20:21:37.425Z,6.00
2022-08-17T20:24:21.541Z,5.10
2022-08-17T20:27:01.359Z,5.30
2022-08-17T20:29:37.001Z,6.03
2022-08-17T20:32:04.737Z,5.40
2022-08-17T20:34:38.094Z,4.90
2022-08-17T20:37:25.437Z,5.00
2022-08-17T20:39:52.785Z,4.67
2022-08-17T20:42:22.409Z,5.23
2022-08-17T20:44:57.863Z,5.53
2022-08-17T20:48:00.805Z,4.93
2022-08-17T20:50:44.439Z,4.90
2022-08-17T20:53:15.589Z,5.07
2022-08-17T20:55:52.338Z,5.00
2022-08-17T20:58:23.431Z,4.73
2022-08-17T21:01:13.966Z,4.67
2022-08-17T21:03:51.198Z,5.10
2022-08-17T21:06:21.228Z,4.97
2022-08-17T21:08:54.562Z,4.30
2022-08-17T21:11:57.114Z,4.50
2022-08-17T21:14:41.706Z,4.60
2022-08-17T21:17:42.053Z,4.23
2022-08-17T21:20:32.107Z,4.40
2022-08-17T21:23:18.650Z,4.10
2022-08-17T21:25:58.003Z,4.57
2022-08-17T21:28:34.572Z,4.07
2022-08-17T21:31:09.150Z,4.37
2022-08-17T21:33:40.084Z,3.47
2022-08-17T21:36:11.610Z,3.97
2022-08-17T21:39:03.435Z,4.00
2022-08-17T21:41:34.942Z,4.17
2022-08-17T21:44:12.568Z,4.03
2022-08-17T21:46:46.721Z,3.90
2022-08-17T21:49:17.911Z,3.47
2022-08-17T21:51:50.123Z,3.60
2022-08-17T21:54:34.804Z,3.40
2022-08-17T21:57:07.376Z,3.20
2022-08-17T21:59:37.513Z,3.80
2022-08-17T22:02:07.007Z,3.60
2022-08-17T22:04:39.496Z,4.10
2022-08-17T22:07:10.642Z,3.70
2022-08-17T22:09:44.381Z,3.67
2022-08-17T22:12:19.723Z,3.30
2022-08-17T22:14:56.914Z,3.10
2022-08-17T22:17:26.888Z,3.27
2022-08-17T22:20:01.899Z,3.83
2022-08-17T22:22:58.315Z,3.07
2022-08-17T22:25:26.944Z,3.30
2022-08-17T22:28:05.167Z,3.30
2022-08-17T22:30:40.258Z,3.03
2022-08-17T22:33:37.930Z,2.50
2022-08-17T22:36:32.698Z,3.13
2022-08-17T22:39:02.241Z,2.60
2022-08-17T22:41:49.541Z,2.70
2022-08-17T22:44:24.508Z,2.67
2022-08-17T22:47:00.151Z,2.70
2022-08-17T22:53:36.452Z,2.37
2022-08-17T22:56:22.594Z,3.07
2022-08-17T22:59:12.753Z,2.60
2022-08-17T23:01:40.890Z,2.50
2022-08-17T23:04:32.686Z,2.83
2022-08-17T23:06:59.789Z,2.40
2022-08-17T23:09:26.746Z,2.40
2022-08-17T23:11:58.870Z,2.10
2022-08-17T23:14:31.820Z,2.67
2022-08-17T23:17:02.202Z,2.60
2022-08-17T23:19:31.891Z,2.43
2022-08-17T23:21:59.897Z,2.57
2022-08-17T23:24:29.808Z,2.60
2022-08-17T23:26:58.339Z,2.10
2022-08-17T23:29:29.013Z,2.33
2022-08-17T23:31:58.108Z,2.37
2022-08-17T23:34:25.761Z,2.83
2022-08-17T23:36:53.329Z,2.50
2022-08-17T23:39:27.443Z,2.90
2022-08-17T23:41:55.494Z,2.77
2022-08-17T23:44:25.220Z,2.50
2022-08-17T23:46:52.976Z,2.60
2022-08-17T23:49:20.429Z,3.20
2022-08-17T23:51:48.464Z,2.47
2022-08-17T23:54:33.799Z,2.63
2022-08-17T23:57:01.903Z,2.73
2022-08-17T23:59:29.373Z,3.20
